createdAt,value
2023-04-25T00:00:31.319Z,6.45
2023-04-25T00:04:35.002Z,5.85
2023-04-25T00:08:37.234Z,6.55
2023-04-25T00:12:39.967Z,5.80
2023-04-25T00:16:42.152Z,6.50
2023-04-25T00:20:47.397Z,7.70
2023-04-25T00:24:49.455Z,6.38
2023-04-25T00:28:51.542Z,6.75
2023-04-25T00:32:54.235Z,7.75
2023-04-25T00:36:56.433Z,7.70
2023-04-25T00:40:58.578Z,6.65
2023-04-25T00:45:01.750Z,7.53
2023-04-25T00:49:03.784Z,7.47
2023-04-25T00:53:06.159Z,7.65
2023-04-25T00:57:08.302Z,8.57
2023-04-25T01:01:11.789Z,8.05
2023-04-25T01:05:14.412Z,9.07
2023-04-25T01:09:17.045Z,6.47
2023-04-25T01:13:19.123Z,9.52
2023-04-25T01:17:22.080Z,9.48
2023-04-25T01:21:28.112Z,8.45
2023-04-25T01:25:31.750Z,9.88
2023-04-25T01:29:35.568Z,6.72
2023-04-25T01:33:38.312Z,8.98
2023-04-25T01:37:41.896Z,8.02
2023-04-25T01:41:45.589Z,11.40
2023-04-25T01:45:48.913Z,7.95
2023-04-25T01:49:51.011Z,8.45
2023-04-25T01:53:53.474Z,7.53
2023-04-25T01:57:55.577Z,8.27
2023-04-25T02:02:06.609Z,8.50
2023-04-25T02:06:10.783Z,8.80
2023-04-25T02:10:17.749Z,7.10
2023-04-25T02:14:30.707Z,10.52
2023-04-25T02:18:38.496Z,9.73
2023-04-25T02:22:43.253Z,10.63
2023-04-25T02:26:45.419Z,9.77
2023-04-25T02:30:48.685Z,10.23
2023-04-25T02:34:50.884Z,11.23
2023-04-25T02:38:53.077Z,8.80
2023-04-25T02:42:56.554Z,7.93
2023-04-25T02:46:58.576Z,10.45
2023-04-25T02:51:00.689Z,8.85
2023-04-25T02:55:03.197Z,9.40
2023-04-25T02:59:06.496Z,9.10
2023-04-25T03:03:08.650Z,10.35
2023-04-25T03:07:11.872Z,12.30
2023-04-25T03:11:13.984Z,14.02
2023-04-25T03:15:17.660Z,12.88
2023-04-25T03:19:19.917Z,11.35
2023-04-25T03:23:22.176Z,12.40
2023-04-25T03:27:24.398Z,10.80
2023-04-25T03:31:27.115Z,13.32
2023-04-25T03:35:29.561Z,12.60
2023-04-25T03:39:31.953Z,13.88
2023-04-25T03:43:34.519Z,14.18
2023-04-25T03:47:41.330Z,15.43
2023-04-25T03:51:43.455Z,13.88
2023-04-25T03:55:45.607Z,16.40
2023-04-25T03:59:48.880Z,14.45
2023-04-25T04:03:52.130Z,13.95
2023-04-25T04:07:55.485Z,12.73
2023-04-25T04:11:58.164Z,15.60
2023-04-25T04:16:00.675Z,12.80
2023-04-25T04:20:04.556Z,10.48
2023-04-25T04:24:07.799Z,10.00
2023-04-25T04:28:23.079Z,11.20
2023-04-25T04:32:31.479Z,12.82
2023-04-25T04:36:34.460Z,11.30
2023-04-25T04:40:36.559Z,28.70
2023-04-25T04:44:45.672Z,13.15
2023-04-25T04:49:08.012Z,12.95
2023-04-25T04:53:16.183Z,10.00
2023-04-25T04:57:33.987Z,7.88
2023-04-25T05:01:48.010Z,10.20
2023-04-25T05:06:01.889Z,11.70
2023-04-25T05:10:21.829Z,10.05
2023-04-25T05:14:32.645Z,14.45
2023-04-25T05:18:48.609Z,8.50
2023-04-25T05:23:19.269Z,11.63
2023-04-25T05:27:43.014Z,10.02
2023-04-25T05:32:03.591Z,9.85
2023-04-25T05:36:07.388Z,9.35
2023-04-25T05:40:10.563Z,11.55
2023-04-25T05:44:32.137Z,8.00
2023-04-25T05:48:55.337Z,11.48
2023-04-25T05:53:12.640Z,8.18
2023-04-25T05:57:25.229Z,6.90
2023-04-25T06:01:27.963Z,7.20
2023-04-25T06:05:30.596Z,7.57
2023-04-25T06:09:32.687Z,7.10
2023-04-25T06:13:34.743Z,7.55
2023-04-25T06:17:37.145Z,7.90
2023-04-25T06:21:44.367Z,6.15
2023-04-25T06:25:46.621Z,6.47
2023-04-25T06:29:49.047Z,8.85
2023-04-25T06:33:51.799Z,6.78
2023-04-25T06:37:54.252Z,6.55
2023-04-25T06:41:58.516Z,9.82
2023-04-25T06:46:29.670Z,6.68
2023-04-25T06:50:34.939Z,5.68
2023-04-25T06:54:37.575Z,5.53
2023-04-25T06:58:52.633Z,5.90
2023-04-25T07:03:04.089Z,6.63
2023-04-25T07:07:06.428Z,7.57
2023-04-25T07:11:15.474Z,6.68
2023-04-25T07:15:17.533Z,7.90
2023-04-25T07:19:22.950Z,5.97
2023-04-25T07:23:25.174Z,6.05
2023-04-25T07:27:27.694Z,5.43
2023-04-25T07:31:34.364Z,7.10
2023-04-25T07:35:36.515Z,7.93
2023-04-25T07:39:38.581Z,6.20
2023-04-25T07:43:41.511Z,8.82
2023-04-25T07:47:43.699Z,7.15
2023-04-25T07:51:45.991Z,8.38
2023-04-25T07:55:51.612Z,7.03
2023-04-25T07:59:54.416Z,7.40
2023-04-25T08:03:58.101Z,7.85
2023-04-25T08:08:19.738Z,6.18
2023-04-25T08:12:23.470Z,9.10
2023-04-25T08:16:26.364Z,6.68
2023-04-25T08:20:29.088Z,7.72
2023-04-25T08:24:33.330Z,7.97
2023-04-25T08:28:35.761Z,8.10
2023-04-25T08:32:39.697Z,7.47
2023-04-25T08:37:00.795Z,6.05
2023-04-25T08:41:16.295Z,7.15
2023-04-25T08:45:18.339Z,6.88
2023-04-25T08:49:20.711Z,7.18
2023-04-25T08:53:28.234Z,9.55
2023-04-25T08:57:32.222Z,6.20
2023-04-25T09:01:35.987Z,7.00
2023-04-25T09:05:38.974Z,6.65
2023-04-25T09:09:41.206Z,5.85
2023-04-25T09:13:43.818Z,5.40
2023-04-25T09:18:08.496Z,6.03
2023-04-25T09:22:19.330Z,5.25
2023-04-25T09:26:22.329Z,5.35
2023-04-25T09:30:34.982Z,6.32
2023-04-25T09:34:44.773Z,5.70
2023-04-25T09:38:48.171Z,5.88
2023-04-25T09:43:24.271Z,5.07
2023-04-25T09:47:27.798Z,4.82
2023-04-25T09:51:31.226Z,4.63
2023-04-25T09:55:36.979Z,3.53
2023-04-25T09:59:40.697Z,5.35
2023-04-25T10:03:44.297Z,7.32
2023-04-25T10:08:13.528Z,4.10
2023-04-25T10:12:15.734Z,4.85
2023-04-25T10:16:18.737Z,3.60
2023-04-25T10:20:20.918Z,3.60
2023-04-25T10:24:23.772Z,5.43
2023-04-25T10:28:26.114Z,5.40
2023-04-25T10:32:30.064Z,3.25
2023-04-25T10:36:33.463Z,4.13
2023-04-25T10:40:35.805Z,4.97
2023-04-25T10:44:38.994Z,5.45
2023-04-25T10:48:47.863Z,5.65
2023-04-25T10:52:49.944Z,4.50
2023-04-25T10:56:52.604Z,3.53
2023-04-25T11:00:57.661Z,3.70
2023-04-25T11:05:00.622Z,5.65
2023-04-25T11:09:03.056Z,4.10
2023-04-25T11:13:05.912Z,4.13
2023-04-25T11:17:08.487Z,4.95
2023-04-25T11:21:11.321Z,4.35
2023-04-25T11:25:16.382Z,5.00
2023-04-25T11:29:18.424Z,5.55
2023-04-25T11:33:25.589Z,3.33
2023-04-25T11:37:27.962Z,3.60
2023-04-25T11:41:31.386Z,4.43
2023-04-25T11:45:33.632Z,5.72
2023-04-25T11:49:36.684Z,5.90
2023-04-25T11:53:42.279Z,8.88
2023-04-25T11:57:46.257Z,8.02
2023-04-25T12:01:50.796Z,6.53
2023-04-25T12:05:53.157Z,5.10
2023-04-25T12:09:55.717Z,4.93
2023-04-25T12:14:03.027Z,7.10
2023-04-25T12:22:23.651Z,7.05
2023-04-25T12:26:26.426Z,7.88
2023-04-25T12:30:29.180Z,4.03
2023-04-25T12:34:33.175Z,3.83
2023-04-25T12:38:41.224Z,6.97
2023-04-25T12:42:43.249Z,4.40
2023-04-25T12:46:46.094Z,4.68
2023-04-25T12:50:50.138Z,6.50
2023-04-25T12:54:52.207Z,6.10
2023-04-25T12:58:54.781Z,4.35
2023-04-25T13:02:56.952Z,6.38
2023-04-25T13:06:59.089Z,7.30
2023-04-25T13:11:01.367Z,8.05
2023-04-25T13:15:03.745Z,8.63
2023-04-25T13:19:06.572Z,7.75
2023-04-25T13:23:08.651Z,5.60
2023-04-25T13:27:10.735Z,5.63
2023-04-25T13:31:12.772Z,5.68
2023-04-25T13:35:14.898Z,4.07
2023-04-25T13:39:17.044Z,5.05
2023-04-25T13:43:25.632Z,5.53
2023-04-25T13:47:28.205Z,2.20
2023-04-25T13:51:32.581Z,5.13
2023-04-25T13:55:37.695Z,4.60
2023-04-25T13:59:41.613Z,5.22
2023-04-25T14:03:43.814Z,4.90
2023-04-25T14:07:46.002Z,4.85
2023-04-25T14:11:48.040Z,4.28
2023-04-25T14:15:51.438Z,5.53
2023-04-25T14:19:53.518Z,5.45
2023-04-25T14:23:55.856Z,3.28
2023-04-25T14:27:57.835Z,6.60
2023-04-25T14:32:00.155Z,4.03
2023-04-25T14:36:02.184Z,3.60
2023-04-25T14:40:05.523Z,4.65
2023-04-25T14:44:07.600Z,5.30
2023-04-25T14:48:09.777Z,6.47
2023-04-25T14:52:11.918Z,3.75
2023-04-25T14:56:14.038Z,4.03
2023-04-25T15:00:17.379Z,3.88
2023-04-25T15:04:19.831Z,3.53
2023-04-25T15:08:22.080Z,2.30
2023-04-25T15:12:24.562Z,4.63
2023-04-25T15:16:27.280Z,2.90
2023-04-25T15:20:29.463Z,6.82
2023-04-25T15:24:31.672Z,4.18
2023-04-25T15:28:34.653Z,4.35
2023-04-25T15:32:36.706Z,6.45
2023-04-25T15:36:38.723Z,3.70
2023-04-25T15:40:41.235Z,2.63
2023-04-25T15:44:43.362Z,3.97
2023-04-25T15:48:45.949Z,3.95
2023-04-25T15:52:49.567Z,4.43
2023-04-25T15:56:51.596Z,6.55
2023-04-25T16:00:55.543Z,4.85
2023-04-25T16:04:57.950Z,4.07
2023-04-25T16:09:00.356Z,3.63
2023-04-25T16:13:02.530Z,2.33
2023-04-25T16:17:04.545Z,5.90
2023-04-25T16:21:06.643Z,4.68
2023-04-25T16:25:09.403Z,3.78
2023-04-25T16:29:12.598Z,5.80
2023-04-25T16:33:15.178Z,3.38
2023-04-25T16:37:17.270Z,5.85
2023-04-25T16:41:19.786Z,4.65
2023-04-25T16:45:22.180Z,2.55
2023-04-25T16:49:24.176Z,5.38
2023-04-25T16:53:26.725Z,4.90
2023-04-25T16:57:28.820Z,4.30
2023-04-25T17:01:31.099Z,6.35
2023-04-25T17:05:34.208Z,5.43
2023-04-25T17:09:36.692Z,6.07
2023-04-25T17:13:38.754Z,4.15
2023-04-25T17:17:40.934Z,3.85
2023-04-25T17:21:43.891Z,5.00
2023-04-25T17:25:46.178Z,4.82
2023-04-25T17:29:48.175Z,5.15
2023-04-25T17:33:50.593Z,4.80
2023-04-25T17:37:52.663Z,5.25
2023-04-25T17:41:54.750Z,2.58
2023-04-25T17:45:56.983Z,7.90
2023-04-25T17:49:59.033Z,3.78
2023-04-25T17:54:01.130Z,2.38
2023-04-25T17:58:03.173Z,2.80
2023-04-25T18:02:05.318Z,3.28
2023-04-25T18:06:07.332Z,4.13
2023-04-25T18:10:11.687Z,3.50
2023-04-25T18:14:14.847Z,2.90
2023-04-25T18:18:20.416Z,4.30
2023-04-25T18:22:22.607Z,4.88
2023-04-25T18:26:24.631Z,2.75
2023-04-25T18:30:26.902Z,2.40
2023-04-25T18:34:28.927Z,2.17
2023-04-25T18:38:35.834Z,2.55
2023-04-25T18:42:38.403Z,3.50
2023-04-25T18:46:43.613Z,3.50
2023-04-25T18:50:45.770Z,2.63
2023-04-25T18:54:48.051Z,4.13
2023-04-25T18:58:53.868Z,6.90
2023-04-25T19:03:03.207Z,3.50
2023-04-25T19:07:05.361Z,3.38
2023-04-25T19:11:18.154Z,3.67
2023-04-25T19:15:23.133Z,4.18
2023-04-25T19:19:27.238Z,5.00
2023-04-25T19:23:31.198Z,5.43
2023-04-25T19:27:33.588Z,3.58
2023-04-25T19:31:37.279Z,3.58
2023-04-25T19:35:39.461Z,3.97
2023-04-25T19:39:41.838Z,2.58
2023-04-25T19:43:43.917Z,4.50
2023-04-25T19:47:46.157Z,2.88
2023-04-25T19:51:48.188Z,3.88
2023-04-25T19:55:50.377Z,4.72
2023-04-25T19:59:52.528Z,14.15
2023-04-25T20:03:54.984Z,4.82
2023-04-25T20:07:57.193Z,4.78
2023-04-25T20:11:59.198Z,3.58
2023-04-25T20:16:02.725Z,2.80
2023-04-25T20:20:06.452Z,3.22
2023-04-25T20:24:08.601Z,3.28
2023-04-25T20:28:10.606Z,3.88
2023-04-25T20:32:12.896Z,4.45
2023-04-25T20:36:15.555Z,4.72
2023-04-25T20:40:17.575Z,5.50
2023-04-25T20:44:22.585Z,3.33
2023-04-25T20:48:24.700Z,2.13
2023-04-25T20:52:26.725Z,2.95
2023-04-25T20:56:28.746Z,3.03
2023-04-25T21:00:30.858Z,2.45
2023-04-25T21:04:32.983Z,3.42
2023-04-25T21:08:35.194Z,3.15
2023-04-25T21:12:37.269Z,2.08
2023-04-25T21:16:40.689Z,2.60
2023-04-25T21:20:42.756Z,2.22
2023-04-25T21:24:44.836Z,1.52
2023-04-25T21:28:47.051Z,4.57
2023-04-25T21:32:52.598Z,4.95
2023-04-25T21:36:54.715Z,3.80
2023-04-25T21:40:56.854Z,2.38
2023-04-25T21:44:58.857Z,3.15
2023-04-25T21:49:01.005Z,2.13
2023-04-25T21:53:03.688Z,4.43
2023-04-25T21:57:05.739Z,2.70
2023-04-25T22:01:07.790Z,1.63
2023-04-25T22:05:10.417Z,2.67
2023-04-25T22:09:12.977Z,3.30
2023-04-25T22:13:15.303Z,2.83
2023-04-25T22:17:17.931Z,2.17
2023-04-25T22:21:20.370Z,3.28
2023-04-25T22:25:22.649Z,3.78
2023-04-25T22:29:24.747Z,3.40
2023-04-25T22:33:27.410Z,5.10
2023-04-25T22:37:29.633Z,3.78
2023-04-25T22:41:32.102Z,3.20
2023-04-25T22:45:35.639Z,5.25
2023-04-25T22:49:37.691Z,2.92
2023-04-25T22:53:41.876Z,1.83
2023-04-25T22:57:44.034Z,3.58
2023-04-25T23:01:47.056Z,5.00
2023-04-25T23:05:49.517Z,3.72
2023-04-25T23:09:52.020Z,4.95
2023-04-25T23:13:54.032Z,4.75
2023-04-25T23:17:57.001Z,4.90
2023-04-25T23:21:59.853Z,7.90
2023-04-25T23:26:11.644Z,4.43
2023-04-25T23:30:15.264Z,5.68
2023-04-25T23:34:17.293Z,4.00
2023-04-25T23:38:20.770Z,4.85
2023-04-25T23:42:22.758Z,3.75
2023-04-25T23:46:25.851Z,4.57
2023-04-25T23:50:27.926Z,2.90
2023-04-25T23:54:29.942Z,4.90
2023-04-25T23:58:31.978Z,3.28
